Time;durP1;ratioP1;P1;durP2;ratioP2;P2;SDS_P1;SDS_P2;PMS_P1;PMS_P2;Temp;Humidity;BMP_temperature;BMP_pressure;BME280_temperature;BME280_humidity;BME280_pressure;Samples;Min_cycle;Max_cycle;Signal;HPM_P1;HPM_P2
2024/04/13 00:01:50;;;;;;;7.38;3.85;;;;;;;17.71;79.37;101509.47;5074449;28;20051;-75
2024/04/13 00:04:56;;;;;;;6.18;3.80;;;;;;;17.55;79.63;101508.28;5075082;28;20067;-75
2024/04/13 00:08:01;;;;;;;7.88;3.97;;;;;;;17.71;79.33;101498.59;5075015;28;20051;-79
2024/04/13 00:11:09;;;;;;;7.82;3.60;;;;;;;17.74;79.00;101503.75;5074648;28;20071;-76
2024/04/13 00:14:13;;;;;;;10.52;3.10;;;;;;;17.57;79.02;101504.56;5074829;28;20067;-77
2024/04/13 00:17:18;;;;;;;7.70;3.60;;;;;;;17.58;79.27;101498.13;5074685;28;20387;-77
2024/04/13 00:20:22;;;;;;;12.10;4.35;;;;;;;17.39;79.90;101491.75;5074629;28;20098;-75
2024/04/13 00:23:27;;;;;;;8.63;3.58;;;;;;;17.41;79.79;101489.75;5074617;28;20387;-75
2024/04/13 00:26:34;;;;;;;8.10;3.92;;;;;;;17.54;79.49;101492.16;5074464;28;20048;-76
2024/04/13 00:29:39;;;;;;;6.93;3.42;;;;;;;17.68;78.82;101493.50;5074651;28;20048;-74
2024/04/13 00:32:44;;;;;;;4.53;3.03;;;;;;;17.46;79.15;101492.88;5073948;28;20059;-75
2024/04/13 00:35:50;;;;;;;9.35;3.38;;;;;;;17.49;79.15;101489.84;5074009;28;20459;-76
2024/04/13 00:38:55;;;;;;;6.25;3.22;;;;;;;17.54;78.96;101486.72;5074231;28;20063;-75
2024/04/13 00:41:59;;;;;;;5.63;3.55;;;;;;;17.63;78.45;101479.53;5073932;28;20051;-75
2024/04/13 00:45:04;;;;;;;5.28;3.13;;;;;;;17.49;78.39;101479.00;5074133;28;20056;-74
2024/04/13 00:48:16;;;;;;;5.85;3.65;;;;;;;17.58;78.08;101479.97;5074192;28;20081;-76
2024/04/13 00:51:23;;;;;;;4.88;3.55;;;;;;;17.57;78.07;101478.28;5073896;28;20048;-74
2024/04/13 00:54:29;;;;;;;6.95;3.33;;;;;;;17.47;77.95;101477.44;5072132;28;20048;-76
2024/04/13 00:57:36;;;;;;;5.47;3.00;;;;;;;17.36;78.48;101475.78;5073847;28;20048;-76
2024/04/13 01:00:44;;;;;;;9.95;3.53;;;;;;;17.39;78.07;101474.63;5073385;28;20055;-78
2024/04/13 01:03:49;;;;;;;8.07;3.70;;;;;;;17.42;77.91;101477.03;5073771;28;20068;-74
2024/04/13 01:06:53;;;;;;;6.75;3.38;;;;;;;17.44;77.89;101478.59;5073504;28;20047;-77
2024/04/13 01:09:58;;;;;;;7.68;3.45;;;;;;;17.63;76.96;101483.06;5073773;28;20051;-75
2024/04/13 01:13:04;;;;;;;7.88;3.50;;;;;;;17.50;77.40;101482.56;5073637;28;20055;-75
2024/04/13 01:16:08;;;;;;;6.05;3.53;;;;;;;17.34;77.81;101480.50;5073635;28;20052;-77
2024/04/13 01:19:12;;;;;;;5.63;3.65;;;;;;;17.31;77.87;101483.50;5073746;28;20055;-76
2024/04/13 01:22:17;;;;;;;5.00;2.67;;;;;;;17.40;77.66;101479.06;5061320;28;20048;-76
2024/04/13 01:25:21;;;;;;;5.40;3.10;;;;;;;17.27;78.10;101481.25;5073251;28;20482;-76
2024/04/13 01:28:31;;;;;;;5.43;3.13;;;;;;;17.30;77.98;101486.38;5073818;28;20059;-75
2024/04/13 01:31:37;;;;;;;6.50;3.00;;;;;;;17.42;77.54;101480.63;5073387;28;20517;-76
2024/04/13 01:34:42;;;;;;;7.40;3.00;;;;;;;17.34;77.91;101480.50;5073480;28;20383;-76
2024/04/13 01:37:47;;;;;;;5.78;3.42;;;;;;;17.07;78.70;101487.75;5073724;28;20067;-77
2024/04/13 01:40:51;;;;;;;5.50;3.00;;;;;;;17.19;78.87;101481.16;5073384;28;20056;-75
2024/04/13 01:43:56;;;;;;;9.32;3.60;;;;;;;17.11;78.49;101489.19;5073427;28;20055;-75
2024/04/13 01:47:01;;;;;;;7.57;3.03;;;;;;;17.12;78.29;101488.19;5073048;28;20056;-75
2024/04/13 01:50:05;;;;;;;7.18;3.80;;;;;;;16.94;78.88;101484.56;5073338;28;20404;-74
2024/04/13 01:53:10;;;;;;;4.07;3.15;;;;;;;16.98;78.35;101483.25;5073160;28;20055;-74
2024/04/13 01:56:15;;;;;;;5.78;3.45;;;;;;;16.94;78.85;101487.25;5070361;28;20048;-77
2024/04/13 01:59:19;;;;;;;5.85;3.85;;;;;;;17.15;78.28;101477.91;5072844;28;20044;-75
2024/04/13 02:02:24;;;;;;;5.80;3.08;;;;;;;17.09;78.18;101475.75;5072802;28;20052;-74
2024/04/13 02:05:29;;;;;;;8.70;3.35;;;;;;;17.03;78.48;101484.50;5072874;28;20402;-76
2024/04/13 02:08:34;;;;;;;7.07;2.90;;;;;;;16.97;78.43;101493.22;5073312;28;20052;-76
2024/04/13 02:11:39;;;;;;;6.38;3.30;;;;;;;16.90;78.09;101486.69;5072998;28;20064;-76
2024/04/13 02:14:43;;;;;;;7.97;3.35;;;;;;;16.86;78.43;101482.56;5060821;28;20048;-76
2024/04/13 02:17:48;;;;;;;7.50;3.75;;;;;;;16.77;78.78;101491.56;5073082;28;20165;-76
2024/04/13 02:20:52;;;;;;;8.02;3.17;;;;;;;16.74;78.74;101490.00;5072676;28;20044;-77
2024/04/13 02:23:56;;;;;;;7.78;2.92;;;;;;;16.80;77.99;101485.88;5060419;28;20048;-77
2024/04/13 02:27:02;;;;;;;4.60;2.85;;;;;;;16.76;78.10;101479.88;5072854;28;20048;-76
2024/04/13 02:30:08;;;;;;;8.40;3.50;;;;;;;16.84;78.06;101481.84;5073026;28;20048;-77
2024/04/13 02:33:12;;;;;;;5.18;3.15;;;;;;;16.70;78.38;101483.19;5072710;28;20052;-75
2024/04/13 02:36:17;;;;;;;9.07;3.10;;;;;;;16.69;77.86;101476.03;5072402;28;20103;-75
2024/04/13 02:39:21;;;;;;;8.43;2.92;;;;;;;16.73;77.64;101482.91;5076579;28;20048;-76
2024/04/13 02:42:26;;;;;;;8.50;3.45;;;;;;;16.86;77.48;101479.88;5076528;28;20071;-75
2024/04/13 02:45:30;;;;;;;4.05;2.75;;;;;;;16.98;76.51;101489.53;5075966;28;20052;-77
2024/04/13 02:48:37;;;;;;;4.85;2.80;;;;;;;17.01;76.77;101489.22;5063803;28;20067;-76
2024/04/13 02:51:41;;;;;;;4.80;2.85;;;;;;;17.03;76.54;101483.66;5076488;28;20044;-76
2024/04/13 02:54:45;;;;;;;5.72;3.25;;;;;;;16.97;76.73;101479.66;5076334;28;20059;-78
2024/04/13 02:57:50;;;;;;;4.55;2.83;;;;;;;16.88;76.55;101483.28;5076025;28;20059;-76
2024/04/13 03:00:57;;;;;;;4.72;2.83;;;;;;;16.88;76.14;101484.13;5075570;28;20056;-76
2024/04/13 03:04:01;;;;;;;4.25;2.70;;;;;;;16.91;75.93;101488.41;5076068;28;20055;-78
2024/04/13 03:07:06;;;;;;;4.28;2.53;;;;;;;17.04;75.40;101486.19;5076095;28;20056;-75
2024/04/13 03:10:10;;;;;;;4.82;2.92;;;;;;;17.15;74.87;101485.16;5076037;28;20051;-75
2024/04/13 03:13:15;;;;;;;4.95;2.90;;;;;;;16.82;75.80;101492.84;5075102;28;20063;-78
2024/04/13 03:16:21;;;;;;;7.05;2.83;;;;;;;16.66;76.44;101494.47;5075937;28;20482;-78
2024/04/13 03:19:25;;;;;;;4.53;2.60;;;;;;;16.64;76.29;101499.19;5075983;28;20051;-74
2024/04/13 03:22:30;;;;;;;5.38;3.05;;;;;;;16.57;76.35;101495.31;5063723;28;20067;-75
2024/04/13 03:25:35;;;;;;;5.75;2.63;;;;;;;16.51;76.87;101491.31;5075890;28;20051;-74
2024/04/13 03:28:40;;;;;;;5.15;2.65;;;;;;;16.44;76.56;101489.34;5075579;28;20388;-77
2024/04/13 03:31:44;;;;;;;7.93;3.10;;;;;;;16.54;76.08;101495.63;5075641;28;20051;-75
2024/04/13 03:34:48;;;;;;;7.22;2.78;;;;;;;16.60;76.24;101501.31;5075663;28;20102;-75
2024/04/13 03:37:57;;;;;;;6.03;2.88;;;;;;;16.55;76.21;101494.63;5075400;28;20056;-76
2024/04/13 03:41:05;;;;;;;5.03;3.00;;;;;;;16.35;77.06;101491.03;5075551;28;20052;-76
2024/04/13 03:44:09;;;;;;;5.18;2.80;;;;;;;16.33;77.26;101484.91;5075303;28;20043;-76
2024/04/13 03:47:14;;;;;;;5.15;3.00;;;;;;;16.31;76.93;101486.06;5075086;28;20056;-75
2024/04/13 03:50:19;;;;;;;6.68;2.78;;;;;;;16.38;76.24;101490.75;5075388;28;20052;-77
2024/04/13 03:53:23;;;;;;;6.43;3.00;;;;;;;16.50;75.98;101491.44;5051414;28;20479;-77
2024/04/13 03:56:27;;;;;;;6.20;2.72;;;;;;;16.50;75.27;101486.91;5075169;28;20099;-75
2024/04/13 03:59:32;;;;;;;5.05;3.15;;;;;;;16.42;75.65;101488.63;5074831;28;20376;-74
2024/04/13 04:02:37;;;;;;;4.45;2.60;;;;;;;16.56;74.93;101490.91;5075083;28;20064;-74
2024/04/13 04:05:41;;;;;;;6.80;2.70;;;;;;;16.66;74.47;101489.06;5074956;28;20048;-74
2024/04/13 04:08:46;;;;;;;4.97;2.20;;;;;;;16.46;74.79;101490.03;5074981;28;20059;-76
2024/04/13 04:11:50;;;;;;;6.85;2.70;;;;;;;16.33;75.46;101493.06;5074863;28;20506;-74
2024/04/13 04:14:54;;;;;;;4.82;2.47;;;;;;;16.29;75.78;101495.19;5073061;28;20051;-75
2024/04/13 04:18:00;;;;;;;5.43;3.15;;;;;;;16.38;75.17;101498.91;5074840;28;20071;-74
2024/04/13 04:21:04;;;;;;;4.60;2.50;;;;;;;16.38;74.80;101493.47;5074621;28;20051;-74
2024/04/13 04:24:09;;;;;;;3.85;2.33;;;;;;;16.22;75.47;101494.03;5074559;28;20051;-75
2024/04/13 04:27:13;;;;;;;5.93;2.60;;;;;;;16.27;75.14;101490.91;5074550;28;20068;-74
2024/04/13 04:30:18;;;;;;;5.20;2.53;;;;;;;16.34;75.20;101493.91;5074036;28;20391;-75
2024/04/13 04:33:23;;;;;;;7.68;2.67;;;;;;;16.44;74.55;101490.19;5074426;28;20506;-76
2024/04/13 04:36:27;;;;;;;4.75;2.78;;;;;;;16.32;75.01;101496.75;5074235;28;20048;-75
2024/04/13 04:39:33;;;;;;;6.28;3.30;;;;;;;16.16;75.34;101486.50;5074295;28;20056;-75
2024/04/13 04:42:38;;;;;;;5.32;2.70;;;;;;;16.25;75.37;101491.06;5073832;28;20419;-75
2024/04/13 04:45:42;;;;;;;5.28;2.88;;;;;;;16.33;75.07;101493.06;5074028;28;20491;-75
2024/04/13 04:48:50;;;;;;;8.45;2.58;;;;;;;16.33;75.04;101494.91;5073440;28;20056;-75
2024/04/13 04:51:55;;;;;;;6.78;2.53;;;;;;;16.38;75.27;101489.91;5054082;28;20048;-77
2024/04/13 04:55:01;;;;;;;9.50;2.97;;;;;;;16.31;75.46;101491.47;5053988;28;20499;-75
2024/04/13 04:58:06;;;;;;;7.10;2.92;;;;;;;16.43;75.05;101501.16;5041686;28;20052;-75
2024/04/13 05:01:10;;;;;;;7.72;2.45;;;;;;;16.24;75.32;101492.03;5040231;28;20071;-75
2024/04/13 05:04:15;;;;;;;4.75;2.70;;;;;;;16.29;75.07;101499.78;5041458;28;20044;-75
2024/04/13 05:07:22;;;;;;;4.90;2.53;;;;;;;16.39;75.11;101499.75;5041246;28;20102;-74
2024/04/13 05:10:26;;;;;;;7.68;2.70;;;;;;;17.17;72.31;101499.44;5053827;28;20100;-74
2024/04/13 05:13:31;;;;;;;5.93;2.60;;;;;;;17.97;69.55;101500.41;5041274;28;20051;-74
2024/04/13 05:16:35;;;;;;;5.57;3.10;;;;;;;17.76;68.92;101507.16;5053570;28;20048;-76
2024/04/13 05:19:39;;;;;;;5.90;2.42;;;;;;;18.02;67.87;101513.56;5053335;28;20064;-74
2024/04/13 05:22:44;;;;;;;6.38;2.30;;;;;;;18.46;65.92;101507.22;5053641;28;20044;-74
2024/04/13 05:25:49;;;;;;;5.28;2.45;;;;;;;18.95;63.55;101513.84;5061043;28;20515;-75
2024/04/13 05:28:54;;;;;;;4.15;2.55;;;;;;;19.23;62.99;101518.09;5073150;28;20407;-76
2024/04/13 05:31:58;;;;;;;3.50;2.28;;;;;;;19.59;61.35;101524.25;5073098;28;20040;-76
2024/04/13 05:35:03;;;;;;;3.90;2.28;;;;;;;19.50;61.92;101533.41;5069305;28;20056;-78
2024/04/13 05:38:08;;;;;;;6.70;2.60;;;;;;;19.76;61.54;101539.63;5064276;28;20150;-78
2024/04/13 05:41:13;;;;;;;5.05;2.80;;;;;;;20.13;60.27;101551.00;5066443;28;20044;-76
2024/04/13 05:44:17;;;;;;;5.40;2.95;;;;;;;20.00;60.34;101547.03;5057995;28;20052;-77
2024/04/13 05:47:22;;;;;;;3.33;2.28;;;;;;;19.90;60.51;101549.91;5068258;28;20051;-77
2024/04/13 05:50:26;;;;;;;5.65;2.75;;;;;;;19.27;63.22;101557.59;5058645;28;20051;-78
2024/04/13 05:53:31;;;;;;;9.63;2.80;;;;;;;19.03;63.85;101559.31;5056164;28;20067;-76
2024/04/13 05:56:36;;;;;;;4.38;2.63;;;;;;;19.17;63.60;101561.44;5053720;28;20052;-76
2024/04/13 05:59:41;;;;;;;4.85;2.58;;;;;;;19.13;63.49;101551.91;5052720;28;20048;-75
2024/04/13 06:02:45;;;;;;;4.60;2.45;;;;;;;19.13;64.31;101560.06;5053072;28;20048;-76
2024/04/13 06:05:50;;;;;;;5.57;3.83;;;;;;;19.51;62.98;101551.44;5053030;28;20048;-77
2024/04/13 06:10:32;;;;;;;8.85;4.35;;;;;;;19.79;62.39;101560.25;5507570;25;20078;-75
2024/04/13 06:13:37;;;;;;;13.82;7.32;;;;;;;20.00;61.79;101558.78;5469514;26;20023;-75
2024/04/13 06:16:42;;;;;;;35.47;19.40;;;;;;;20.37;60.92;101565.72;5470793;26;20026;-76
2024/04/13 06:19:47;;;;;;;12.98;7.80;;;;;;;20.73;59.26;101565.22;5471169;26;20019;-75
2024/04/13 06:22:51;;;;;;;15.75;7.32;;;;;;;21.17;57.72;101573.06;5470323;26;20027;-75
2024/04/13 06:25:56;;;;;;;27.83;11.98;;;;;;;21.47;57.34;101571.44;5470973;26;20018;-76
2024/04/13 06:29:01;;;;;;;10.88;6.43;;;;;;;21.46;57.00;101567.84;5475773;26;20026;-76
2024/04/13 06:32:06;;;;;;;12.18;6.15;;;;;;;21.63;56.81;101574.09;5434312;26;20024;-75
2024/04/13 06:35:11;;;;;;;11.93;7.10;;;;;;;21.88;56.27;101567.53;5433876;26;20027;-76
2024/04/13 06:38:23;;;;;;;16.98;6.35;;;;;;;22.01;55.80;101576.88;5434002;26;20023;-76
2024/04/13 06:41:29;;;;;;;14.45;8.98;;;;;;;22.20;56.02;101570.09;5433820;26;20046;-75
2024/04/13 06:44:35;;;;;;;13.50;7.60;;;;;;;22.44;55.48;101580.06;5434022;26;20027;-76
2024/04/13 06:47:39;;;;;;;7.55;4.70;;;;;;;22.70;54.66;101583.28;5433829;26;20023;-77
2024/04/13 06:50:44;;;;;;;13.55;5.85;;;;;;;22.85;54.28;101583.34;5433413;26;20385;-77
2024/04/13 06:53:49;;;;;;;15.45;7.13;;;;;;;22.92;53.91;101587.91;5433501;26;20023;-77
2024/04/13 06:56:54;;;;;;;15.80;8.30;;;;;;;22.93;54.75;101580.53;5433446;26;20023;-77
2024/04/13 06:59:59;;;;;;;24.27;14.10;;;;;;;23.16;54.01;101584.91;5433157;26;20024;-77
2024/04/13 07:03:04;;;;;;;21.48;11.55;;;;;;;23.27;54.02;101589.09;5434418;26;20023;-77
2024/04/13 07:06:09;;;;;;;10.75;4.97;;;;;;;23.65;53.32;101588.00;5433698;26;20023;-79
2024/04/13 07:09:14;;;;;;;10.55;3.50;;;;;;;23.65;57.13;101588.00;5433295;26;20019;-75
2024/04/13 07:12:19;;;;;;;6.43;3.15;;;;;;;23.62;60.88;101599.38;5434310;26;20459;-75
2024/04/13 07:15:24;;;;;;;9.30;3.70;;;;;;;23.69;68.59;101589.34;5432538;26;20459;-73
2024/04/13 07:18:28;;;;;;;7.22;3.80;;;;;;;23.48;62.13;101596.63;5433693;26;20035;-78
2024/04/13 07:21:33;;;;;;;8.98;3.63;;;;;;;23.81;63.55;101597.94;5417593;26;20440;-73
2024/04/13 07:24:38;;;;;;;8.07;4.03;;;;;;;24.45;59.36;101601.69;5418521;26;20020;-73
2024/04/13 07:27:43;;;;;;;9.23;3.55;;;;;;;25.70;65.78;101600.91;5426757;26;20032;-73
2024/04/13 07:30:47;;;;;;;7.72;3.20;;;;;;;26.99;49.36;101606.22;5471482;26;20488;-72
2024/04/13 07:33:52;;;;;;;8.63;4.28;;;;;;;28.65;44.99;101607.28;5490699;26;20022;-73
2024/04/13 07:36:57;;;;;;;5.45;2.42;;;;;;;30.61;41.41;101603.56;5451870;26;20031;-73
2024/04/13 07:40:01;;;;;;;5.60;2.40;;;;;;;31.38;36.14;101600.59;5344515;26;20029;-73
2024/04/13 07:43:06;;;;;;;6.13;2.80;;;;;;;31.88;34.89;101600.94;5380513;26;20030;-73
2024/04/13 07:46:11;;;;;;;4.97;2.08;;;;;;;32.89;35.66;101607.72;5344777;26;20136;-74
2024/04/13 07:49:16;;;;;;;7.80;2.40;;;;;;;32.72;34.12;101605.75;5324979;26;20033;-72
2024/04/13 07:52:20;;;;;;;4.93;2.10;;;;;;;33.10;32.91;101601.44;5344485;26;20379;-72
2024/04/13 07:55:25;;;;;;;6.88;2.80;;;;;;;33.20;32.25;101607.16;5344100;26;20471;-74
2024/04/13 07:58:29;;;;;;;5.88;3.13;;;;;;;33.89;33.13;101616.88;5376100;26;20028;-76
2024/04/13 08:01:34;;;;;;;6.43;3.10;;;;;;;34.97;31.72;101607.53;5355776;26;20032;-78
2024/04/13 08:04:39;;;;;;;5.28;2.03;;;;;;;35.61;31.26;101608.38;5379939;26;20024;-77
2024/04/13 08:07:44;;;;;;;6.20;2.28;;;;;;;35.84;30.68;101607.94;5379279;26;20024;-76
2024/04/13 08:10:49;;;;;;;8.82;2.22;;;;;;;35.87;30.62;101604.63;5408741;26;20027;-76
2024/04/13 08:13:53;;;;;;;5.72;1.95;;;;;;;36.16;30.08;101605.88;5452258;26;20150;-77
2024/04/13 08:16:58;;;;;;;4.28;2.33;;;;;;;36.13;30.38;101608.38;5417220;26;20019;-79
2024/04/13 08:20:04;;;;;;;5.50;2.47;;;;;;;35.91;30.46;101614.13;5416441;26;20330;-78
2024/04/13 08:23:09;;;;;;;9.07;2.60;;;;;;;35.87;30.73;101607.41;5416057;26;20143;-78
2024/04/13 08:26:14;;;;;;;7.15;2.33;;;;;;;35.32;31.59;101607.88;5417280;26;20366;-77
2024/04/13 08:29:19;;;;;;;7.35;2.42;;;;;;;35.23;31.60;101607.50;5417716;26;20027;-77
2024/04/13 08:32:24;;;;;;;5.85;2.08;;;;;;;35.36;31.22;101606.22;5442915;26;20032;-78
2024/04/13 08:35:29;;;;;;;7.15;2.47;;;;;;;35.41;31.20;101599.81;5417011;26;20019;-77
2024/04/13 08:38:35;;;;;;;6.70;2.40;;;;;;;35.34;31.82;101614.03;5417148;26;20365;-78
2024/04/13 08:41:47;;;;;;;8.10;2.15;;;;;;;35.84;30.81;101613.53;5447534;26;20022;-77
2024/04/13 08:44:53;;;;;;;4.45;2.00;;;;;;;36.05;30.89;101612.53;5416774;26;20015;-76
2024/04/13 08:48:01;;;;;;;4.68;1.98;;;;;;;35.89;31.25;101617.22;5427527;26;20027;-78
2024/04/13 08:51:09;;;;;;;4.57;2.00;;;;;;;35.90;31.33;101609.63;5416916;26;20443;-76
2024/04/13 08:54:16;;;;;;;4.47;1.70;;;;;;;35.67;31.06;101624.06;5417123;26;20074;-76
2024/04/13 08:57:25;;;;;;;5.50;1.90;;;;;;;34.43;31.52;101607.53;5452703;26;20019;-75
2024/04/13 09:00:36;;;;;;;4.38;2.25;;;;;;;32.85;33.32;101614.88;5452174;26;20035;-74
2024/04/13 09:03:42;;;;;;;4.70;1.98;;;;;;;31.81;34.92;101610.47;5451487;26;20349;-74
2024/04/13 09:06:48;;;;;;;4.65;2.05;;;;;;;31.40;34.42;101612.31;5452459;26;20449;-76
2024/04/13 09:09:54;;;;;;;3.83;2.08;;;;;;;30.57;35.52;101616.19;5452090;26;20022;-76
2024/04/13 09:12:59;;;;;;;4.45;2.20;;;;;;;30.60;35.39;101608.25;5452569;26;20023;-76
2024/04/13 09:16:08;;;;;;;5.15;2.30;;;;;;;30.26;36.99;101606.16;5452522;26;20027;-76
2024/04/13 09:19:13;;;;;;;6.82;2.95;;;;;;;29.41;39.49;101609.88;5436941;26;20027;-75
2024/04/13 09:22:20;;;;;;;5.25;2.30;;;;;;;29.38;40.33;101607.59;5416209;26;20023;-77
2024/04/13 09:25:25;;;;;;;7.55;3.90;;;;;;;29.27;41.37;101602.78;5416385;26;20020;-80
2024/04/13 09:28:45;;;;;;;5.15;3.60;;;;;;;29.25;41.63;101600.25;5415235;26;20330;-88
2024/04/13 09:31:50;;;;;;;6.68;3.72;;;;;;;28.80;43.22;101590.38;5416737;26;20023;-74
2024/04/13 09:34:56;;;;;;;9.20;4.30;;;;;;;28.81;42.73;101597.63;5416198;26;20442;-76
2024/04/13 09:38:01;;;;;;;7.80;4.43;;;;;;;28.20;43.45;101600.06;5416571;26;20019;-76
2024/04/13 09:41:07;;;;;;;7.10;4.60;;;;;;;27.60;44.34;101588.38;5415856;26;20357;-75
2024/04/13 09:44:12;;;;;;;7.00;3.50;;;;;;;27.66;43.91;101586.66;5415645;26;20023;-76
2024/04/13 09:47:17;;;;;;;5.60;3.45;;;;;;;27.56;44.64;101587.13;5416657;26;20028;-76
2024/04/13 09:50:22;;;;;;;7.43;3.33;;;;;;;27.52;44.73;101585.88;5414878;26;20019;-76
2024/04/13 09:53:26;;;;;;;8.30;5.28;;;;;;;27.74;45.58;101586.44;5435429;26;20471;-76
2024/04/13 09:56:31;;;;;;;9.20;5.40;;;;;;;27.70;46.09;101583.25;5415754;26;20027;-73
2024/04/13 09:59:39;;;;;;;7.45;5.00;;;;;;;27.46;46.49;101580.34;5415845;26;20423;-76
2024/04/13 10:02:45;;;;;;;8.07;5.70;;;;;;;27.21;47.62;101582.06;5416070;26;20362;-76
2024/04/13 10:05:54;;;;;;;9.57;5.43;;;;;;;27.07;48.66;101575.69;5416015;26;20377;-76
2024/04/13 10:09:01;;;;;;;8.80;4.97;;;;;;;26.98;49.21;101572.31;5414788;26;20019;-74
2024/04/13 10:12:12;;;;;;;9.13;5.40;;;;;;;27.12;49.03;101573.16;5415532;26;20326;-75
2024/04/13 10:15:18;;;;;;;8.05;5.50;;;;;;;26.59;48.83;101571.41;5415435;26;20023;-74
2024/04/13 10:18:23;;;;;;;11.38;5.93;;;;;;;26.87;47.80;101552.81;5415533;26;20024;-74
2024/04/13 10:21:34;;;;;;;8.07;5.00;;;;;;;26.86;47.73;101554.69;5415890;26;20358;-76
2024/04/13 10:24:45;;;;;;;9.55;4.05;;;;;;;26.68;49.32;101550.84;5415624;26;20028;-76
2024/04/13 10:27:50;;;;;;;8.10;5.20;;;;;;;26.81;49.24;101548.97;5415174;26;20027;-74
2024/04/13 10:30:58;;;;;;;7.93;5.72;;;;;;;26.73;49.21;101542.81;5415254;26;20024;-74
2024/04/13 10:34:03;;;;;;;6.32;4.85;;;;;;;26.72;49.11;101546.59;5415007;26;20372;-74
2024/04/13 10:37:32;;;;;;;6.80;4.38;;;;;;;26.57;49.17;101546.81;5415135;26;20054;-75
2024/04/13 10:40:37;;;;;;;8.68;4.70;;;;;;;26.61;49.62;101542.59;5414799;26;20023;-74
2024/04/13 10:43:42;;;;;;;6.57;4.13;;;;;;;26.61;50.45;101541.75;5414922;26;20020;-74
2024/04/13 10:46:48;;;;;;;6.35;4.38;;;;;;;26.68;50.95;101534.34;5415150;26;20024;-75
2024/04/13 10:49:54;;;;;;;7.10;3.67;;;;;;;26.70;51.14;101538.56;5415112;26;20023;-76
2024/04/13 10:53:12;;;;;;;9.00;5.40;;;;;;;26.51;51.38;101530.28;5415583;26;20023;-77
2024/04/13 10:56:17;;;;;;;8.70;5.13;;;;;;;26.80;52.01;101530.75;5417154;26;20021;-75
2024/04/13 10:59:24;;;;;;;10.23;4.90;;;;;;;26.66;51.65;101523.53;5418013;26;20016;-76
2024/04/13 11:02:30;;;;;;;7.93;5.68;;;;;;;26.49;51.52;101520.31;5438410;26;20023;-75
2024/04/13 11:05:38;;;;;;;8.93;4.70;;;;;;;26.38;51.32;101525.59;5418650;26;20024;-75
2024/04/13 11:08:42;;;;;;;8.77;5.05;;;;;;;26.55;52.68;101504.88;5418102;26;20019;-74
2024/04/13 11:11:46;;;;;;;7.38;6.28;;;;;;;26.65;53.42;101519.06;5418580;26;20028;-75
2024/04/13 11:14:52;;;;;;;8.85;6.28;;;;;;;26.56;54.03;101511.22;5418744;26;20023;-75
2024/04/13 11:17:56;;;;;;;13.57;7.53;;;;;;;26.44;53.79;101514.59;5418786;26;20015;-75
2024/04/13 11:21:04;;;;;;;8.20;5.78;;;;;;;26.22;53.28;101517.75;5418497;26;20028;-75
2024/04/13 11:24:13;;;;;;;8.98;5.28;;;;;;;26.17;53.26;101509.28;5418246;26;20039;-75
2024/04/13 11:27:18;;;;;;;7.03;5.50;;;;;;;26.24;53.36;101507.38;5418344;26;20027;-75
2024/04/13 11:30:24;;;;;;;11.20;5.43;;;;;;;26.22;52.21;101504.00;5418169;26;20015;-75
2024/04/13 11:33:31;;;;;;;11.82;5.35;;;;;;;26.34;49.78;101503.13;5437889;26;20027;-75
2024/04/13 11:36:36;;;;;;;9.75;4.63;;;;;;;26.25;48.17;101501.66;5418476;26;20027;-75
2024/04/13 11:39:42;;;;;;;5.70;4.18;;;;;;;26.21;48.71;101496.78;5417728;26;20337;-78
2024/04/13 11:42:50;;;;;;;9.82;5.35;;;;;;;26.31;50.38;101491.72;5418213;26;20023;-75
2024/04/13 11:45:55;;;;;;;7.22;4.78;;;;;;;26.19;50.71;101494.25;5418180;26;20028;-75
2024/04/13 11:49:00;;;;;;;6.45;4.10;;;;;;;26.33;48.41;101487.69;5418603;26;20024;-75
2024/04/13 11:52:05;;;;;;;5.95;3.47;;;;;;;26.25;47.37;101485.13;5418540;26;20020;-74
2024/04/13 11:55:11;;;;;;;7.88;4.70;;;;;;;26.39;50.67;101483.25;5418655;26;20031;-76
2024/04/13 11:58:22;;;;;;;7.97;5.15;;;;;;;26.51;51.44;101473.31;5417122;26;20031;-74
2024/04/13 12:01:27;;;;;;;8.07;3.47;;;;;;;26.40;47.56;101468.41;5418455;26;20024;-74
2024/04/13 12:04:32;;;;;;;6.78;3.28;;;;;;;26.46;48.15;101473.09;5415120;26;20019;-75
2024/04/13 12:07:36;;;;;;;8.70;5.15;;;;;;;26.64;48.71;101459.50;5418170;26;20024;-75
2024/04/13 12:10:41;;;;;;;8.60;4.35;;;;;;;26.66;49.06;101457.41;5418410;26;20020;-75
2024/04/13 12:13:46;;;;;;;5.60;3.60;;;;;;;26.65;48.46;101458.47;5418340;26;20027;-75
2024/04/13 12:16:51;;;;;;;6.88;3.50;;;;;;;26.82;45.63;101451.47;5418220;26;20023;-75
2024/04/13 12:19:57;;;;;;;5.05;3.30;;;;;;;26.78;46.58;101443.88;5418112;26;20019;-75
2024/04/13 12:23:02;;;;;;;8.00;3.10;;;;;;;26.68;43.96;101448.94;5418092;26;20024;-76
2024/04/13 12:26:07;;;;;;;9.50;4.15;;;;;;;26.58;45.38;101443.00;5418272;26;20467;-75
2024/04/13 12:29:12;;;;;;;5.80;3.42;;;;;;;26.68;49.30;101427.75;5417868;26;20020;-75
2024/04/13 12:32:17;;;;;;;8.70;4.50;;;;;;;26.79;49.47;101435.38;5418320;26;20028;-74
2024/04/13 12:35:21;;;;;;;5.47;3.40;;;;;;;26.81;46.65;101432.41;5416706;26;20360;-84
2024/04/13 12:38:27;;;;;;;4.70;2.90;;;;;;;26.79;47.05;101431.75;5460002;26;20097;-76
2024/04/13 12:41:33;;;;;;;8.32;3.10;;;;;;;26.89;46.44;101432.16;5444601;26;20026;-76
2024/04/13 12:44:38;;;;;;;7.03;3.50;;;;;;;26.82;45.61;101423.06;5450619;26;20076;-76
2024/04/13 12:47:43;;;;;;;4.85;3.17;;;;;;;26.69;45.83;101414.81;5452887;26;20196;-75
2024/04/13 12:50:48;;;;;;;7.88;2.78;;;;;;;26.66;46.08;101412.50;5451606;26;20022;-77
2024/04/13 12:53:52;;;;;;;9.43;3.38;;;;;;;26.88;47.92;101413.97;5452766;26;20458;-76
2024/04/13 12:56:57;;;;;;;5.93;2.40;;;;;;;26.72;48.85;101406.97;5447749;26;20027;-76
2024/04/13 13:00:04;;;;;;;6.47;2.67;;;;;;;26.82;46.79;101407.41;5450104;26;20023;-76
2024/04/13 13:03:09;;;;;;;6.50;3.00;;;;;;;26.99;48.24;101402.25;5454329;26;20035;-76
2024/04/13 13:06:14;;;;;;;6.15;2.90;;;;;;;26.93;45.34;101398.47;5464691;26;20026;-75
2024/04/13 13:09:19;;;;;;;6.53;3.15;;;;;;;26.92;45.57;101395.94;5480111;26;20038;-76
2024/04/13 13:12:25;;;;;;;11.70;3.40;;;;;;;26.97;45.03;101393.38;5453050;26;20027;-76
2024/04/13 13:15:30;;;;;;;5.32;2.75;;;;;;;27.11;45.59;101390.34;5453077;26;20031;-75
2024/04/13 13:18:35;;;;;;;5.47;2.88;;;;;;;27.13;45.68;101381.88;5451993;26;20027;-77
2024/04/13 13:21:40;;;;;;;4.78;2.90;;;;;;;27.15;45.76;101379.75;5452614;26;20035;-75
2024/04/13 13:24:45;;;;;;;6.55;3.30;;;;;;;27.29;45.19;101372.25;5452799;26;20046;-75
2024/04/13 13:27:50;;;;;;;11.10;3.80;;;;;;;27.29;45.66;101375.84;5453119;26;20035;-76
2024/04/13 13:30:54;;;;;;;7.20;3.30;;;;;;;27.20;45.69;101360.63;5451238;26;20031;-76
2024/04/13 13:33:59;;;;;;;5.85;3.67;;;;;;;27.11;46.13;101354.50;5452864;26;20058;-77
2024/04/13 13:37:08;;;;;;;6.28;3.13;;;;;;;27.03;46.79;101352.00;5452968;26;20019;-76
2024/04/13 13:40:14;;;;;;;6.10;2.70;;;;;;;27.07;46.79;101356.03;5416452;26;20031;-76
2024/04/13 13:43:19;;;;;;;6.35;3.20;;;;;;;27.30;46.68;101343.63;5415791;26;20027;-79
2024/04/13 13:46:24;;;;;;;4.55;2.78;;;;;;;27.40;44.72;101346.78;5435501;26;20031;-76
2024/04/13 13:49:30;;;;;;;4.97;3.10;;;;;;;27.29;45.35;101342.78;5474130;26;20034;-76
2024/04/13 13:52:34;;;;;;;4.28;2.65;;;;;;;27.23;46.09;101335.41;5437325;26;20031;-75
2024/04/13 13:55:39;;;;;;;9.63;3.10;;;;;;;27.31;45.52;101337.03;5454465;26;20030;-76
2024/04/13 13:58:44;;;;;;;6.93;3.38;;;;;;;27.22;46.16;101328.19;5416004;26;20027;-77
2024/04/13 14:01:49;;;;;;;8.68;3.30;;;;;;;27.22;46.83;101330.94;5414843;26;20370;-77
2024/04/13 14:04:54;;;;;;;7.18;2.92;;;;;;;27.31;46.79;101318.56;5434440;26;20035;-77
2024/04/13 14:07:59;;;;;;;5.05;2.72;;;;;;;27.36;47.60;101310.47;5416274;26;20362;-76
2024/04/13 14:11:04;;;;;;;5.80;2.88;;;;;;;27.37;46.42;101312.19;5431963;26;20027;-76
2024/04/13 14:14:08;;;;;;;7.22;3.00;;;;;;;27.44;46.98;101304.75;5447803;26;20033;-76
2024/04/13 14:17:13;;;;;;;6.10;3.08;;;;;;;27.45;47.69;101302.84;5449506;26;20036;-76
2024/04/13 14:20:18;;;;;;;5.22;2.92;;;;;;;27.38;47.39;101291.81;5449435;26;20038;-76
2024/04/13 14:23:23;;;;;;;6.25;3.28;;;;;;;27.39;46.17;101295.44;5451731;26;20030;-77